Time;durP1;ratioP1;P1;durP2;ratioP2;P2;SDS_P1;SDS_P2;PMS_P1;PMS_P2;Temp;Humidity;BMP_temperature;BMP_pressure;BME280_temperature;BME280_humidity;BME280_pressure;Samples;Min_cycle;Max_cycle;Signal;HPM_P1;HPM_P2
2023/06/30 00:09:58;;;;;;;;;;;23.20;45.60;;;;;;21255211;27;20388;-55
2023/06/30 00:19:59;;;;;;;;;;;23.00;45.70;;;;;;21254987;27;19927;-56
2023/06/30 00:29:59;;;;;;;;;;;22.70;46.20;;;;;;21256842;27;20376;-56
2023/06/30 00:40:00;;;;;;;;;;;22.70;46.10;;;;;;21254956;27;20372;-55
2023/06/30 00:50:01;;;;;;;;;;;22.50;46.60;;;;;;21252683;27;19923;-56
2023/06/30 01:00:07;;;;;;;;;;;22.30;47.00;;;;;;21253599;27;19955;-56
2023/06/30 01:10:14;;;;;;;;;;;22.20;47.30;;;;;;21252180;27;19923;-56
2023/06/30 01:20:16;;;;;;;;;;;21.90;48.30;;;;;;21250573;27;19924;-55
2023/06/30 01:30:17;;;;;;;;;;;21.90;48.20;;;;;;21252135;27;19935;-57
2023/06/30 01:40:18;;;;;;;;;;;21.60;49.00;;;;;;21250480;27;19963;-55
2023/06/30 01:50:19;;;;;;;;;;;21.50;49.40;;;;;;21249850;27;20006;-55
2023/06/30 02:00:19;;;;;;;;;;;21.40;49.70;;;;;;21249533;27;19924;-58
2023/06/30 02:10:20;;;;;;;;;;;21.40;50.00;;;;;;21248824;28;19930;-55
2023/06/30 02:20:21;;;;;;;;;;;21.20;50.40;;;;;;21248839;28;20014;-54
2023/06/30 02:30:21;;;;;;;;;;;21.20;50.60;;;;;;21252985;27;20010;-56
2023/06/30 02:40:22;;;;;;;;;;;21.20;50.90;;;;;;21263452;27;19927;-56
2023/06/30 02:50:28;;;;;;;;;;;21.20;51.00;;;;;;21262517;27;19947;-55
2023/06/30 03:00:28;;;;;;;;;;;21.00;51.60;;;;;;21263343;27;19923;-56
2023/06/30 03:10:29;;;;;;;;;;;21.00;51.80;;;;;;21262181;27;19931;-56
2023/06/30 03:20:29;;;;;;;;;;;20.80;52.20;;;;;;21261637;27;19955;-56
2023/06/30 03:30:30;;;;;;;;;;;20.70;52.40;;;;;;21259407;27;19929;-57
2023/06/30 03:40:31;;;;;;;;;;;20.70;52.60;;;;;;21258690;27;20027;-56
2023/06/30 03:50:31;;;;;;;;;;;20.70;52.30;;;;;;21258783;27;19924;-56
2023/06/30 04:00:32;;;;;;;;;;;20.70;52.60;;;;;;21258196;27;19937;-56
2023/06/30 04:10:33;;;;;;;;;;;20.60;52.70;;;;;;21257304;27;20381;-55
2023/06/30 04:20:33;;;;;;;;;;;20.70;52.40;;;;;;21256396;27;20337;-57
2023/06/30 04:30:34;;;;;;;;;;;20.60;52.60;;;;;;21254088;27;19923;-56
2023/06/30 04:40:35;;;;;;;;;;;20.60;52.50;;;;;;21253281;27;20285;-55
2023/06/30 04:50:36;;;;;;;;;;;20.40;53.00;;;;;;21252440;27;20284;-55
2023/06/30 05:00:36;;;;;;;;;;;20.40;52.40;;;;;;21251350;27;19999;-55
2023/06/30 05:10:37;;;;;;;;;;;20.40;52.20;;;;;;21251966;27;20065;-56
2023/06/30 05:20:39;;;;;;;;;;;20.20;53.20;;;;;;21248466;27;19946;-55
2023/06/30 05:30:40;;;;;;;;;;;20.40;52.60;;;;;;21244161;27;19930;-56
2023/06/30 05:40:43;;;;;;;;;;;;;;;;;;21248884;27;19975;-56
2023/06/30 05:50:45;;;;;;;;;;;20.00;53.60;;;;;;21247923;27;19928;-56
2023/06/30 06:00:46;;;;;;;;;;;20.00;53.30;;;;;;21248904;27;19924;-57
2023/06/30 06:10:48;;;;;;;;;;;20.20;52.50;;;;;;21261208;27;19931;-55
2023/06/30 06:20:48;;;;;;;;;;;20.00;52.80;;;;;;21265362;27;19931;-57
2023/06/30 06:30:49;;;;;;;;;;;20.20;52.30;;;;;;21262922;27;20376;-56
2023/06/30 06:40:50;;;;;;;;;;;20.30;51.30;;;;;;21261374;27;19928;-55
2023/06/30 06:50:55;;;;;;;;;;;20.60;49.80;;;;;;21261362;27;20407;-56
2023/06/30 07:00:55;;;;;;;;;;;20.70;49.40;;;;;;21259935;27;19939;-57
2023/06/30 07:10:56;;;;;;;;;;;21.40;48.00;;;;;;21261576;27;20454;-57
2023/06/30 07:20:57;;;;;;;;;;;22.20;46.20;;;;;;21259633;27;19924;-55
2023/06/30 07:30:57;;;;;;;;;;;22.70;44.90;;;;;;21258056;27;19929;-55
2023/06/30 07:40:58;;;;;;;;;;;22.90;44.30;;;;;;21258860;27;19924;-55
2023/06/30 07:50:59;;;;;;;;;;;23.20;43.20;;;;;;21256915;27;19931;-56
2023/06/30 08:01:00;;;;;;;;;;;23.40;43.00;;;;;;21255881;27;20376;-56
2023/06/30 08:11:00;;;;;;;;;;;23.60;41.90;;;;;;21256569;27;19928;-57
2023/06/30 08:21:02;;;;;;;;;;;23.60;42.50;;;;;;21255057;27;19923;-57
2023/06/30 08:31:02;;;;;;;;;;;23.90;42.60;;;;;;21252696;27;19929;-55
2023/06/30 08:41:03;;;;;;;;;;;24.20;41.30;;;;;;21253717;27;19963;-55
2023/06/30 08:51:04;;;;;;;;;;;24.50;40.90;;;;;;21253066;27;19931;-57
2023/06/30 09:01:05;;;;;;;;;;;24.60;40.00;;;;;;21252007;27;19927;-56
2023/06/30 09:11:08;;;;;;;;;;;24.50;40.50;;;;;;21251350;27;19946;-55
2023/06/30 09:21:08;;;;;;;;;;;24.60;39.60;;;;;;21249435;27;19931;-55
2023/06/30 09:31:09;;;;;;;;;;;24.90;39.10;;;;;;21248615;27;19968;-56
2023/06/30 09:41:18;;;;;;;;;;;24.90;38.80;;;;;;21248965;27;19967;-59
2023/06/30 09:51:22;;;;;;;;;;;25.10;38.50;;;;;;21248933;27;20015;-56
2023/06/30 10:01:23;;;;;;;;;;;25.40;37.90;;;;;;21247438;27;19924;-56
2023/06/30 10:11:25;;;;;;;;;;;25.60;36.80;;;;;;21248557;28;19934;-56
2023/06/30 10:21:26;;;;;;;;;;;26.00;35.90;;;;;;21248393;28;20342;-57
2023/06/30 10:31:27;;;;;;;;;;;26.10;34.60;;;;;;21247099;28;19923;-59
2023/06/30 10:41:28;;;;;;;;;;;26.10;35.80;;;;;;21247831;28;19923;-56
2023/06/30 10:51:36;;;;;;;;;;;26.50;34.40;;;;;;21250390;27;19953;-55
2023/06/30 11:01:37;;;;;;;;;;;26.60;34.10;;;;;;21261867;27;19927;-55
2023/06/30 11:11:47;;;;;;;;;;;26.60;32.80;;;;;;21261419;27;19978;-56
2023/06/30 11:22:08;;;;;;;;;;;26.70;30.90;;;;;;21260836;27;19970;-56
2023/06/30 11:32:08;;;;;;;;;;;27.00;32.50;;;;;;21260184;27;19947;-56
2023/06/30 11:42:09;;;;;;;;;;;27.10;31.80;;;;;;21259594;27;19923;-56
2023/06/30 11:52:10;;;;;;;;;;;27.30;31.10;;;;;;21257447;27;19924;-56
2023/06/30 12:02:11;;;;;;;;;;;27.40;30.50;;;;;;21255770;27;20018;-55
2023/06/30 12:12:24;;;;;;;;;;;27.50;29.70;;;;;;21255878;27;19923;-55
2023/06/30 12:22:27;;;;;;;;;;;27.60;29.60;;;;;;21254032;27;19924;-56
2023/06/30 12:32:28;;;;;;;;;;;27.60;28.80;;;;;;21255458;27;19924;-56
2023/06/30 12:42:29;;;;;;;;;;;27.60;28.80;;;;;;21253920;27;20028;-56
2023/06/30 12:52:30;;;;;;;;;;;27.90;28.50;;;;;;21253048;27;19981;-55
2023/06/30 13:02:30;;;;;;;;;;;28.10;26.60;;;;;;21253002;27;20330;-57
2023/06/30 13:12:31;;;;;;;;;;;28.10;27.60;;;;;;21251659;27;19923;-57
2023/06/30 13:22:32;;;;;;;;;;;28.10;27.60;;;;;;21251119;27;20008;-56
2023/06/30 13:32:32;;;;;;;;;;;28.30;27.60;;;;;;21249177;27;19975;-56
2023/06/30 13:42:34;;;;;;;;;;;28.40;27.70;;;;;;21249175;27;20006;-56
2023/06/30 13:52:34;;;;;;;;;;;28.50;29.20;;;;;;21248960;27;19981;-57
2023/06/30 14:02:35;;;;;;;;;;;28.60;29.30;;;;;;21248326;27;20011;-57
2023/06/30 14:12:35;;;;;;;;;;;28.90;27.90;;;;;;21248166;28;19923;-57
2023/06/30 14:22:36;;;;;;;;;;;28.90;28.10;;;;;;21248283;28;19928;-56
2023/06/30 14:32:37;;;;;;;;;;;28.90;28.20;;;;;;21259824;27;19924;-58
2023/06/30 14:42:37;;;;;;;;;;;29.30;28.10;;;;;;21264831;27;20296;-57
2023/06/30 14:52:38;;;;;;;;;;;29.30;28.00;;;;;;21264101;27;19923;-57
2023/06/30 15:02:39;;;;;;;;;;;29.20;28.10;;;;;;21262759;27;20058;-56
2023/06/30 15:12:39;;;;;;;;;;;29.10;28.40;;;;;;21262264;27;19979;-55
2023/06/30 15:22:40;;;;;;;;;;;29.30;28.20;;;;;;21260822;27;20025;-55
2023/06/30 15:32:40;;;;;;;;;;;29.10;28.40;;;;;;21258469;27;19923;-58
2023/06/30 15:42:41;;;;;;;;;;;29.30;27.90;;;;;;21256422;27;19977;-58
2023/06/30 15:52:42;;;;;;;;;;;29.40;29.20;;;;;;21256798;27;19981;-65
2023/06/30 16:02:42;;;;;;;;;;;29.60;28.50;;;;;;21257948;27;20455;-61
2023/06/30 16:12:44;;;;;;;;;;;29.60;28.80;;;;;;21257320;27;19981;-57
2023/06/30 16:22:45;;;;;;;;;;;29.60;28.40;;;;;;21255241;27;19928;-59
2023/06/30 16:32:46;;;;;;;;;;;29.70;28.00;;;;;;21255088;27;19988;-58
2023/06/30 16:42:47;;;;;;;;;;;29.80;28.00;;;;;;21253365;27;19927;-56
2023/06/30 16:52:48;;;;;;;;;;;29.90;27.60;;;;;;21250969;27;20010;-57
2023/06/30 17:02:49;;;;;;;;;;;29.90;27.50;;;;;;21251919;27;19998;-59
2023/06/30 17:12:49;;;;;;;;;;;29.80;27.50;;;;;;21251407;27;20006;-59
2023/06/30 17:22:50;;;;;;;;;;;29.90;27.30;;;;;;21243095;27;19924;-60
2023/06/30 17:32:50;;;;;;;;;;;29.90;27.20;;;;;;21250669;27;19924;-57
2023/06/30 17:42:53;;;;;;;;;;;29.80;28.00;;;;;;21249239;27;20703;-57
2023/06/30 17:52:54;;;;;;;;;;;29.60;28.30;;;;;;21248416;27;19928;-60
2023/06/30 18:02:54;;;;;;;;;;;29.60;28.70;;;;;;21247168;27;20360;-59
2023/06/30 18:12:59;;;;;;;;;;;29.60;28.10;;;;;;21248586;28;19930;-55
2023/06/30 18:22:59;;;;;;;;;;;29.30;28.70;;;;;;21247212;28;19923;-58
2023/06/30 18:33:00;;;;;;;;;;;29.30;27.90;;;;;;21247482;28;19923;-62
2023/06/30 18:43:01;;;;;;;;;;;29.20;27.60;;;;;;21247412;28;19923;-57
2023/06/30 18:53:02;;;;;;;;;;;29.00;26.50;;;;;;21246620;28;19930;-58
2023/06/30 19:03:03;;;;;;;;;;;28.90;26.50;;;;;;21246131;28;19976;-56
2023/06/30 19:13:03;;;;;;;;;;;28.70;26.70;;;;;;21249962;27;19976;-56
2023/06/30 19:23:05;;;;;;;;;;;28.60;26.80;;;;;;21258560;27;19935;-56
2023/06/30 19:33:06;;;;;;;;;;;28.30;27.40;;;;;;21259795;27;19935;-57
2023/06/30 19:43:07;;;;;;;;;;;28.10;27.60;;;;;;21256774;27;19923;-56
2023/06/30 19:53:08;;;;;;;;;;;27.90;28.00;;;;;;21256951;27;20357;-57
2023/06/30 20:03:09;;;;;;;;;;;27.60;28.20;;;;;;21255210;27;20322;-56
2023/06/30 20:13:09;;;;;;;;;;;27.60;28.30;;;;;;21255859;27;20398;-56
2023/06/30 20:23:10;;;;;;;;;;;27.20;28.60;;;;;;21255070;27;20006;-57
2023/06/30 20:33:10;;;;;;;;;;;27.00;29.10;;;;;;21255143;27;19930;-55
2023/06/30 20:43:11;;;;;;;;;;;26.90;29.40;;;;;;21254599;27;19930;-56
2023/06/30 20:53:11;;;;;;;;;;;26.80;29.90;;;;;;21252971;27;19923;-56
2023/06/30 21:03:12;;;;;;;;;;;26.50;30.60;;;;;;21253435;27;19947;-57
2023/06/30 21:13:13;;;;;;;;;;;26.40;31.20;;;;;;21250605;27;19979;-56
2023/06/30 21:23:13;;;;;;;;;;;26.20;32.30;;;;;;21250887;27;20292;-57
2023/06/30 21:33:15;;;;;;;;;;;25.90;33.00;;;;;;21250841;27;19967;-57
2023/06/30 21:43:16;;;;;;;;;;;25.80;33.90;;;;;;21248900;27;20309;-58
2023/06/30 21:53:17;;;;;;;;;;;25.60;35.10;;;;;;21248044;27;19930;-57
2023/06/30 22:03:18;;;;;;;;;;;25.60;35.60;;;;;;21248666;27;20367;-57
2023/06/30 22:13:19;;;;;;;;;;;25.50;36.00;;;;;;21247079;28;20014;-58
2023/06/30 22:23:19;;;;;;;;;;;25.40;36.70;;;;;;21247587;28;20372;-57
2023/06/30 22:33:20;;;;;;;;;;;25.20;37.50;;;;;;21247736;28;19967;-57
2023/06/30 22:43:20;;;;;;;;;;;25.00;37.90;;;;;;21247609;28;19978;-57
2023/06/30 22:53:21;;;;;;;;;;;25.00;38.20;;;;;;21259274;27;19975;-56
2023/06/30 23:03:22;;;;;;;;;;;24.90;38.40;;;;;;21262840;27;19924;-58
2023/06/30 23:13:23;;;;;;;;;;;24.60;38.90;;;;;;21262033;27;19923;-57
2023/06/30 23:23:27;;;;;;;;;;;24.60;38.90;;;;;;21261848;27;19924;-55
2023/06/30 23:33:28;;;;;;;;;;;24.40;39.30;;;;;;21260839;27;19960;-57
2023/06/30 23:43:28;;;;;;;;;;;24.30;39.60;;;;;;21260334;27;20024;-55
2023/06/30 23:53:29;;;;;;;;;;;24.20;39.80;;;;;;21259585;27;19923;-56
